LCLK/LCA METAR and TAF weather

Enter ICAO airport designator
Station Type Date Time Source
LCLK METAR 2021/01/16 03:00 UTC NOAA

LCLK 160300Z 27005KT 220V320 9999 -TSRA FEW025CB SCT050 14/11 Q1010 NOSIG


Station Type Date Time Source
LCLK Decoded METAR 2021/01/16 03:00 UTC NOAA

Larnaca Airport, Cyprus (LCLK) 34-53N 033-38E 2M
Jan 15, 2021 - 10:00 PM EST / 2021.01.16 0300 UTC
Wind: from the W (270 degrees) at 6 MPH (5 KT) (direction variable):0
Visibility: greater than 7 mile(s):0
Sky conditions: partly cloudy
Weather: light rain with thunder; Cumulonimbus clouds observed
Temperature: 57 F (14 C)
Dew Point: 51 F (11 C)
Relative Humidity: 82%
Pressure (altimeter): 29.83 in. Hg (1010 hPa)
ob: LCLK 160300Z 27005KT 220V320 9999 -TSRA FEW025CB SCT050 14/11 Q1010 NOSIG
cycle: 3

Station Type Date Time Source
LCLK TAF 2021/01/15 18:33 UTC NOAA

TAF TAF LCLK 151730Z 1518/1618 25009KT 9999 FEW030 PROB30
TEMPO 1603/1618 5000 SHRA
BECMG 1608/1610 21020KT PROB40
TEMPO 1610/1616 VRB25G35KT 2000 TSRA SCT030CB
BECMG 1615/1618 27008KT

Example: see airport list